TAF LDZD 280525Z 2806/2906 14006KT CAVOK
                 TX34/2813Z TN19/2903Z
           TEMPO 2811/2816 23008KT
           BECMG 2820/2822 VRB02KT=
TAF LDZD 272325Z 2800/2900 VRB02KT CAVOK
                 TX34/2812Z TN19/2803Z
           TEMPO 2811/2816 23008KT=
TAF LDZD 271725Z 2718/2818 VRB02KT CAVOK
                 TX34/2812Z TN20/2803Z
           TEMPO 2811/2816 23008KT=
TAF LDZD 271125Z 2712/2812 20009KT CAVOK
                 TX33/2712Z TN20/2803Z
          PROB40 2712/2716 30010KT
           BECMG 2716/2718 VRB02KT=
TAF COR LDZD 270651Z 2706/2806 10006KT 9999 FEW060
                     TX32/2712Z TN20/2803Z
        PROB30 TEMPO 2706/2708 13008KT
               BECMG 2709/2711 20008KT
              PROB30 2712/2716 30008KT
               BECMG 2716/2718 VRB02KT=
TAF LDZD 270525Z 2706/2806 10006KT 9999 FEW060
                 TX22/2712Z TN20/2803Z
    PROB30 TEMPO 2706/2708 13008KT
           BECMG 2709/2711 20008KT
          PROB30 2712/2716 30008KT
           BECMG 2716/2718 VRB02KT=
TAF LDZD 262325Z 2700/2800 14008KT 9999 FEW050
                 TX33/2712Z TN24/2701Z
    PROB30 TEMPO 2700/2708 07006KT
           BECMG 2709/2711 30008KT
           BECMG 2716/2718 VRB02KT=